Time;durP1;ratioP1;P1;durP2;ratioP2;P2;SDS_P1;SDS_P2;PMS_P1;PMS_P2;Temp;Humidity;BMP_temperature;BMP_pressure;BME280_temperature;BME280_humidity;BME280_pressure;Samples;Min_cycle;Max_cycle;Signal;HPM_P1;HPM_P2
2023/09/03 00:00:55;;;;;;;14.57;13.40;;;;;;;16.94;100.00;101210.22;5055228;28;20205;-75
2023/09/03 00:03:23;;;;;;;14.03;13.13;;;;;;;16.91;100.00;101200.66;5054553;28;20285;-75
2023/09/03 00:05:50;;;;;;;14.63;13.63;;;;;;;16.97;100.00;101205.72;5055161;28;20209;-75
2023/09/03 00:08:17;;;;;;;13.60;12.70;;;;;;;16.99;100.00;101198.59;5054543;28;20422;-75
2023/09/03 00:10:44;;;;;;;13.60;12.60;;;;;;;17.09;100.00;101204.44;5054932;28;20197;-75
2023/09/03 00:13:10;;;;;;;14.57;13.63;;;;;;;17.10;100.00;101218.47;5054264;28;20685;-76
2023/09/03 00:15:39;;;;;;;14.67;13.37;;;;;;;16.97;100.00;101226.81;5054747;28;20233;-75
2023/09/03 00:18:06;;;;;;;14.80;13.80;;;;;;;16.93;100.00;101224.34;5051067;28;20209;-75
2023/09/03 00:20:34;;;;;;;14.33;13.33;;;;;;;16.68;100.00;101215.38;5046785;28;20202;-75
2023/09/03 00:23:00;;;;;;;15.10;13.93;;;;;;;16.59;100.00;101193.72;5054218;28;20230;-75
2023/09/03 00:25:27;;;;;;;15.30;14.20;;;;;;;16.53;100.00;101181.63;5054254;28;20210;-75
2023/09/03 00:27:53;;;;;;;14.50;13.30;;;;;;;16.50;100.00;101176.44;5054281;28;20228;-75
2023/09/03 00:30:20;;;;;;;15.70;14.60;;;;;;;16.34;100.00;101170.78;5054877;28;20555;-75
2023/09/03 00:32:47;;;;;;;16.57;15.13;;;;;;;16.40;100.00;101170.59;5053350;28;20607;-74
2023/09/03 00:35:14;;;;;;;14.60;13.60;;;;;;;16.38;100.00;101171.56;5054726;28;20206;-75
2023/09/03 00:37:42;;;;;;;14.50;13.50;;;;;;;16.18;100.00;101172.19;5054123;28;20494;-75
2023/09/03 00:40:09;;;;;;;15.43;14.33;;;;;;;16.18;100.00;101165.13;5054331;28;20212;-74
2023/09/03 00:42:36;;;;;;;15.90;14.73;;;;;;;16.12;100.00;101161.84;5054180;28;20269;-75
2023/09/03 00:45:02;;;;;;;14.73;13.67;;;;;;;16.17;100.00;101159.91;5054490;28;20213;-75
2023/09/03 00:47:29;;;;;;;15.40;14.20;;;;;;;16.12;100.00;101161.84;5053199;28;20811;-75
2023/09/03 00:49:56;;;;;;;15.93;14.67;;;;;;;15.98;100.00;101159.63;5054554;28;20207;-75
2023/09/03 00:52:25;;;;;;;16.73;15.43;;;;;;;15.97;100.00;101158.72;5053698;28;20241;-75
2023/09/03 00:54:54;;;;;;;14.40;13.33;;;;;;;16.17;100.00;101162.53;5053910;28;20212;-75
2023/09/03 00:57:20;;;;;;;15.57;14.37;;;;;;;16.12;100.00;101183.75;5053963;28;20213;-75
2023/09/03 00:59:48;;;;;;;13.43;12.53;;;;;;;16.35;100.00;101192.72;5054050;28;20201;-75
2023/09/03 01:02:19;;;;;;;13.10;12.10;;;;;;;16.58;100.00;101206.06;5052029;28;20229;-75
2023/09/03 01:04:46;;;;;;;13.43;12.33;;;;;;;16.72;100.00;101216.16;5054088;28;20201;-75
2023/09/03 01:07:14;;;;;;;12.80;11.90;;;;;;;16.81;100.00;101251.94;5053737;28;20212;-75
2023/09/03 01:09:41;;;;;;;11.77;10.87;;;;;;;16.69;100.00;101313.81;5053502;28;20209;-75
2023/09/03 01:12:16;;;;;;;12.80;11.83;;;;;;;16.71;100.00;101348.91;5053745;28;20236;-75
2023/09/03 01:14:52;;;;;;;11.67;10.67;;;;;;;16.90;100.00;101351.84;5053619;28;20584;-75
2023/09/03 01:17:27;;;;;;;10.57;9.67;;;;;;;17.05;100.00;101355.81;5053482;28;20213;-75
2023/09/03 01:20:05;;;;;;;9.53;8.90;;;;;;;17.15;99.47;101364.31;5053929;28;20262;-75
2023/09/03 01:22:55;;;;;;;10.30;9.43;;;;;;;17.19;98.00;101387.91;5053195;28;20225;-75
2023/09/03 01:25:35;;;;;;;10.30;9.40;;;;;;;17.11;96.41;101396.97;5053852;28;20205;-75
2023/09/03 01:28:21;;;;;;;10.17;9.37;;;;;;;17.01;96.26;101407.78;5053553;28;20226;-75
2023/09/03 01:30:48;;;;;;;10.20;9.50;;;;;;;16.85;97.36;101396.00;5046974;28;20208;-75
2023/09/03 01:33:16;;;;;;;9.60;9.00;;;;;;;16.80;97.25;101400.50;5052522;28;20233;-75
2023/09/03 01:35:43;;;;;;;9.77;8.97;;;;;;;16.91;97.60;101403.72;5053209;28;20259;-75
2023/09/03 01:38:10;;;;;;;9.80;8.93;;;;;;;17.02;97.35;101395.47;5052898;28;20207;-75
2023/09/03 01:40:39;;;;;;;9.83;9.10;;;;;;;17.07;96.33;101412.88;5053230;28;20456;-75
2023/09/03 01:43:05;;;;;;;8.20;7.50;;;;;;;17.12;95.58;101422.44;5052833;28;20224;-75
2023/09/03 01:45:37;;;;;;;9.13;8.43;;;;;;;17.17;95.17;101431.09;5052911;28;20202;-75
2023/09/03 01:48:13;;;;;;;8.73;8.03;;;;;;;17.21;94.20;101456.47;5052988;28;20572;-75
2023/09/03 01:50:44;;;;;;;8.70;8.10;;;;;;;17.18;94.11;101481.16;5053176;28;20601;-75
2023/09/03 01:53:20;;;;;;;9.23;8.53;;;;;;;17.15;94.01;101485.69;5052695;28;20608;-75
2023/09/03 01:55:54;;;;;;;9.37;8.57;;;;;;;17.16;94.04;101490.03;5053149;28;20637;-75
2023/09/03 01:58:24;;;;;;;9.40;8.63;;;;;;;17.14;94.10;101486.56;5053125;28;20212;-75
2023/09/03 02:00:54;;;;;;;9.63;8.80;;;;;;;17.02;94.34;101472.81;5053022;28;20205;-75
2023/09/03 02:03:20;;;;;;;9.93;9.17;;;;;;;17.03;94.57;101450.81;5052447;28;20229;-74
2023/09/03 02:05:47;;;;;;;9.33;8.73;;;;;;;17.03;94.58;101449.97;5052524;28;20219;-74
2023/09/03 02:08:14;;;;;;;9.60;8.80;;;;;;;16.97;94.03;101466.84;5052519;28;20209;-75
2023/09/03 02:10:40;;;;;;;8.87;8.27;;;;;;;16.98;94.68;101455.34;5052741;28;20576;-74
2023/09/03 02:13:07;;;;;;;8.70;8.10;;;;;;;17.01;95.07;101433.31;5052132;28;20248;-75
2023/09/03 02:15:33;;;;;;;8.70;8.10;;;;;;;17.03;95.10;101424.44;5052710;28;20256;-74
2023/09/03 02:18:01;;;;;;;8.80;8.17;;;;;;;16.98;94.64;101422.84;5052166;28;20210;-75
2023/09/03 02:20:28;;;;;;;8.57;7.97;;;;;;;17.03;94.32;101424.44;5052565;28;20213;-75
2023/09/03 02:22:54;;;;;;;8.60;7.83;;;;;;;17.01;94.21;101426.25;5051948;28;20219;-75
2023/09/03 02:25:21;;;;;;;9.27;8.57;;;;;;;17.04;94.14;101423.50;5052560;28;20203;-75
2023/09/03 02:27:47;;;;;;;9.83;9.13;;;;;;;16.99;93.94;101420.16;5051055;28;20202;-75
2023/09/03 02:30:14;;;;;;;8.63;7.93;;;;;;;16.93;94.13;101420.34;5052488;28;20206;-75
2023/09/03 02:32:40;;;;;;;10.70;10.00;;;;;;;16.63;93.98;101422.94;5050747;28;20233;-75
2023/09/03 02:35:09;;;;;;;9.17;8.47;;;;;;;16.70;95.05;101404.31;5052414;28;20210;-75
2023/09/03 02:37:35;;;;;;;10.20;9.10;;;;;;;16.48;95.87;101389.97;5050712;28;20222;-75
2023/09/03 02:40:02;;;;;;;9.43;8.73;;;;;;;16.60;96.55;101367.66;5052535;28;20205;-75
2023/09/03 02:42:29;;;;;;;9.33;8.63;;;;;;;16.61;96.53;101364.13;5051628;28;20236;-75
2023/09/03 02:44:55;;;;;;;9.30;8.70;;;;;;;16.61;96.74;101364.13;5051707;28;20206;-75
2023/09/03 02:47:22;;;;;;;10.57;9.87;;;;;;;16.43;96.85;101368.16;5051486;28;20217;-74
2023/09/03 02:49:49;;;;;;;9.10;8.50;;;;;;;16.35;98.34;101342.91;5052385;28;20202;-75
2023/09/03 02:52:17;;;;;;;10.83;10.10;;;;;;;16.30;98.17;101332.50;5051851;28;20226;-75
2023/09/03 02:54:43;;;;;;;9.57;8.77;;;;;;;16.32;98.72;101319.31;5051909;28;20224;-75
2023/09/03 02:57:10;;;;;;;9.63;8.93;;;;;;;16.31;98.69;101317.56;5051503;28;20201;-75
2023/09/03 02:59:36;;;;;;;9.77;9.07;;;;;;;16.32;97.90;101329.84;5052027;28;20213;-75
2023/09/03 03:02:03;;;;;;;9.50;8.80;;;;;;;16.39;97.92;101326.09;5050942;28;20595;-74
2023/09/03 03:04:29;;;;;;;9.30;8.60;;;;;;;16.32;97.52;101338.59;5051758;28;20209;-75
2023/09/03 03:06:56;;;;;;;16.80;8.87;;;;;;;16.31;97.83;101323.69;5051840;28;20201;-75
2023/09/03 03:09:24;;;;;;;9.70;8.73;;;;;;;16.35;98.19;101319.19;5051344;28;20230;-75
2023/09/03 03:11:50;;;;;;;8.93;8.27;;;;;;;16.37;97.97;101315.63;5051402;28;20213;-74
2023/09/03 03:14:17;;;;;;;8.07;7.47;;;;;;;16.41;98.09;101319.00;5051398;28;20227;-75
2023/09/03 03:16:43;;;;;;;8.70;7.83;;;;;;;16.49;97.46;101324.94;5051227;28;20209;-75
2023/09/03 03:19:10;;;;;;;8.77;8.13;;;;;;;16.55;97.14;101343.22;5050888;28;20213;-75
2023/09/03 03:21:37;;;;;;;8.17;7.57;;;;;;;16.41;97.02;101348.00;5051495;28;20678;-75
2023/09/03 03:24:04;;;;;;;8.73;8.03;;;;;;;16.55;97.56;101339.69;5051409;28;20244;-75
2023/09/03 03:26:34;;;;;;;7.67;7.07;;;;;;;16.36;96.87;101361.31;5051228;28;20213;-75
2023/09/03 03:29:00;;;;;;;8.10;7.50;;;;;;;16.50;97.32;101354.81;5050866;28;20259;-75
2023/09/03 03:31:27;;;;;;;7.70;7.10;;;;;;;16.57;96.67;101378.31;5051318;28;20201;-75
2023/09/03 03:33:53;;;;;;;8.37;7.67;;;;;;;16.48;95.37;101402.28;5050998;28;20234;-75
2023/09/03 03:36:21;;;;;;;9.43;8.53;;;;;;;16.53;95.45;101418.84;5051536;28;20205;-75
2023/09/03 03:38:48;;;;;;;7.90;7.40;;;;;;;16.60;95.57;101427.44;5046197;28;20198;-75
2023/09/03 03:41:16;;;;;;;9.27;8.47;;;;;;;16.60;95.40;101435.34;5050705;28;20217;-75
2023/09/03 03:43:45;;;;;;;9.00;8.30;;;;;;;16.43;95.66;101435.78;5051308;28;20268;-75
2023/09/03 03:46:13;;;;;;;9.60;8.90;;;;;;;16.33;96.23;101445.72;5051350;28;20198;-75
2023/09/03 03:48:40;;;;;;;10.90;9.90;;;;;;;16.04;97.48;101426.28;5050413;28;20245;-75
2023/09/03 03:51:07;;;;;;;11.50;10.50;;;;;;;15.74;99.50;101392.81;5051258;28;20198;-75
2023/09/03 03:53:34;;;;;;;12.20;11.10;;;;;;;15.43;100.00;101330.41;5050354;28;20695;-76
2023/09/03 03:56:01;;;;;;;9.10;8.40;;;;;;;15.71;100.00;101303.38;5051142;28;20210;-75
2023/09/03 03:58:30;;;;;;;10.10;9.30;;;;;;;15.73;100.00;101309.50;5051153;28;20205;-75
2023/09/03 04:00:58;;;;;;;9.47;8.77;;;;;;;15.88;100.00;101301.19;5051137;28;20205;-75
2023/09/03 04:03:27;;;;;;;9.37;8.67;;;;;;;15.93;100.00;101304.56;5050173;28;20226;-74
2023/09/03 04:05:58;;;;;;;8.60;8.00;;;;;;;16.03;100.00;101313.94;5050957;28;20258;-75
2023/09/03 04:08:25;;;;;;;8.90;8.30;;;;;;;16.11;100.00;101334.78;5050167;28;20210;-74
2023/09/03 04:10:57;;;;;;;9.70;9.00;;;;;;;16.09;99.53;101355.03;5051248;28;20221;-74
2023/09/03 04:13:24;;;;;;;9.57;8.67;;;;;;;16.05;99.26;101362.19;5050606;28;20308;-75
2023/09/03 04:15:51;;;;;;;9.73;9.03;;;;;;;16.01;98.67;101378.94;5042877;28;20213;-75
2023/09/03 04:18:19;;;;;;;9.77;9.07;;;;;;;15.87;99.53;101375.81;5050376;28;20209;-75
2023/09/03 04:20:45;;;;;;;10.63;9.83;;;;;;;15.95;99.24;101387.00;5051238;28;20209;-74
2023/09/03 04:23:12;;;;;;;11.00;10.13;;;;;;;15.60;100.00;101374.69;5050436;28;20224;-75
2023/09/03 04:25:39;;;;;;;9.60;8.90;;;;;;;15.79;100.00;101360.22;5051156;28;20216;-75
2023/09/03 04:28:06;;;;;;;12.10;11.00;;;;;;;15.51;100.00;101362.66;5050706;28;20769;-75
2023/09/03 04:30:32;;;;;;;10.87;9.97;;;;;;;15.49;100.00;101339.00;5050983;28;20209;-75
2023/09/03 04:32:59;;;;;;;10.17;9.37;;;;;;;15.41;100.00;101317.28;5050445;28;20236;-75
2023/09/03 04:35:27;;;;;;;13.50;12.30;;;;;;;15.14;100.00;101296.91;5051619;28;20663;-75
2023/09/03 04:37:53;;;;;;;14.00;12.73;;;;;;;14.95;100.00;101263.19;5052232;28;20705;-75
2023/09/03 04:40:20;;;;;;;14.87;13.50;;;;;;;14.78;100.00;101257.44;5054249;28;20589;-74
2023/09/03 04:42:46;;;;;;;14.03;12.73;;;;;;;14.66;100.00;101233.16;5054288;28;20217;-77
2023/09/03 04:45:13;;;;;;;11.90;11.00;;;;;;;14.98;100.00;101228.06;5054638;28;20205;-75
2023/09/03 04:47:39;;;;;;;12.30;11.37;;;;;;;15.05;100.00;101240.16;5050974;28;20209;-75
2023/09/03 04:50:06;;;;;;;12.73;11.70;;;;;;;15.05;100.00;101255.94;5054021;28;20660;-75
2023/09/03 04:52:35;;;;;;;12.60;11.70;;;;;;;15.03;100.00;101266.47;5053852;28;20235;-75
2023/09/03 04:55:02;;;;;;;12.63;11.53;;;;;;;15.11;100.00;101268.06;5053800;28;20783;-75
2023/09/03 04:57:29;;;;;;;14.13;13.03;;;;;;;15.01;100.00;101288.47;5054019;28;20808;-75
2023/09/03 04:59:56;;;;;;;12.37;11.40;;;;;;;14.99;100.00;101283.22;5054075;28;20209;-75
2023/09/03 05:02:22;;;;;;;12.47;11.53;;;;;;;15.05;100.00;101290.13;5053375;28;20473;-75
2023/09/03 05:04:49;;;;;;;11.57;10.77;;;;;;;15.06;100.00;101308.50;5053743;28;20579;-75
2023/09/03 05:07:15;;;;;;;13.17;11.17;;;;;;;15.03;100.00;101315.59;5054275;28;20208;-75
2023/09/03 05:09:43;;;;;;;12.60;11.70;;;;;;;14.91;100.00;101322.00;5053734;28;20208;-75
2023/09/03 05:12:10;;;;;;;12.70;11.70;;;;;;;14.87;100.00;101322.97;5053201;28;20593;-75
2023/09/03 05:14:36;;;;;;;12.33;11.43;;;;;;;14.82;100.00;101303.78;5053693;28;20243;-75
2023/09/03 05:17:03;;;;;;;12.60;11.50;;;;;;;15.02;100.00;101300.69;5053669;28;20208;-75
2023/09/03 05:19:29;;;;;;;13.13;12.07;;;;;;;14.99;100.00;101319.19;5053527;28;20219;-75
2023/09/03 05:21:56;;;;;;;10.83;9.93;;;;;;;15.13;100.00;101322.34;5045642;28;20205;-75
2023/09/03 05:24:22;;;;;;;13.10;11.80;;;;;;;15.18;100.00;101338.00;5053384;28;20570;-75
2023/09/03 05:26:50;;;;;;;11.60;10.70;;;;;;;15.37;100.00;101341.94;5053420;28;20232;-75
2023/09/03 05:29:17;;;;;;;12.63;11.53;;;;;;;15.49;100.00;101365.31;5053591;28;20224;-75
2023/09/03 05:31:44;;;;;;;10.63;9.73;;;;;;;15.59;100.00;101384.38;5053054;28;20221;-75
2023/09/03 05:34:10;;;;;;;13.47;12.33;;;;;;;15.44;100.00;101424.22;5052942;28;20236;-75
2023/09/03 05:36:37;;;;;;;12.23;11.27;;;;;;;15.41;100.00;101445.34;5053614;28;20206;-75
2023/09/03 05:39:05;;;;;;;12.27;11.27;;;;;;;14.96;100.00;101441.03;5053021;28;20209;-75
2023/09/03 05:41:32;;;;;;;12.53;11.37;;;;;;;14.95;100.00;101417.44;5052864;28;20291;-75
2023/09/03 05:44:05;;;;;;;14.77;13.30;;;;;;;14.74;100.00;101384.56;5053249;28;20222;-75
2023/09/03 05:46:32;;;;;;;15.07;13.70;;;;;;;14.62;100.00;101362.03;5052763;28;20286;-75
2023/09/03 05:48:59;;;;;;;15.40;14.23;;;;;;;14.58;100.00;101347.25;5052165;28;20578;-75
2023/09/03 05:51:25;;;;;;;16.50;15.00;;;;;;;14.48;100.00;101338.66;5053254;28;20217;-75
2023/09/03 05:53:52;;;;;;;16.33;14.83;;;;;;;14.44;100.00;101327.34;5052501;28;20723;-75
2023/09/03 05:56:19;;;;;;;15.47;14.17;;;;;;;14.50;100.00;101326.34;5052974;28;20201;-75
2023/09/03 05:58:45;;;;;;;15.80;14.53;;;;;;;14.46;100.00;101327.31;5052790;28;20327;-75
2023/09/03 06:01:13;;;;;;;17.87;16.27;;;;;;;14.47;100.00;101323.81;5052584;28;20681;-75
2023/09/03 06:03:41;;;;;;;16.93;15.33;;;;;;;14.67;100.00;101333.91;5052095;28;20224;-75
2023/09/03 06:06:09;;;;;;;16.37;15.13;;;;;;;14.76;100.00;101359.13;5053075;28;20206;-75
2023/09/03 06:08:37;;;;;;;16.63;15.07;;;;;;;14.91;100.00;101358.78;5052366;28;20204;-75
2023/09/03 06:11:05;;;;;;;15.93;14.53;;;;;;;14.97;100.00;101377.06;5052867;28;20199;-75
2023/09/03 06:13:33;;;;;;;16.70;15.20;;;;;;;14.94;100.00;101385.00;5051406;28;20257;-76
2023/09/03 06:15:59;;;;;;;15.67;14.17;;;;;;;15.13;100.00;101379.34;5044929;28;20219;-75
2023/09/03 06:18:27;;;;;;;15.63;14.30;;;;;;;15.17;100.00;101388.91;5051980;28;20777;-74
2023/09/03 06:20:55;;;;;;;16.20;14.70;;;;;;;15.22;100.00;101406.31;5052613;28;20301;-75
2023/09/03 06:23:21;;;;;;;16.03;14.50;;;;;;;15.02;100.00;101403.25;5052155;28;20223;-75
2023/09/03 06:25:49;;;;;;;16.50;15.10;;;;;;;15.17;100.00;101402.91;5052019;28;20202;-75
2023/09/03 06:28:16;;;;;;;16.03;14.63;;;;;;;15.07;100.00;101411.91;5052573;28;20205;-77
2023/09/03 06:30:43;;;;;;;17.60;15.83;;;;;;;15.28;100.00;101410.53;5052495;28;20213;-75
2023/09/03 06:33:12;;;;;;;15.67;14.37;;;;;;;15.34;100.00;101420.94;5051681;28;20224;-76
2023/09/03 06:35:40;;;;;;;15.33;14.13;;;;;;;15.14;100.00;101424.00;5049966;28;20213;-78
2023/09/03 06:38:07;;;;;;;15.97;14.57;;;;;;;15.06;100.00;101429.47;5052008;28;20734;-76
2023/09/03 06:40:34;;;;;;;16.73;15.33;;;;;;;15.07;100.00;101406.66;5052171;28;20236;-77
2023/09/03 06:43:00;;;;;;;16.70;14.97;;;;;;;15.09;100.00;101395.19;5042915;28;20233;-76
2023/09/03 06:45:27;;;;;;;16.40;14.90;;;;;;;15.13;100.00;101413.53;5052208;28;20207;-77
2023/09/03 06:47:54;;;;;;;17.17;15.50;;;;;;;15.02;100.00;101413.75;5051786;28;20207;-77
2023/09/03 06:50:20;;;;;;;17.00;15.07;;;;;;;15.13;100.00;101408.28;5051275;28;20239;-77
2023/09/03 06:52:48;;;;;;;16.70;15.23;;;;;;;15.17;100.00;101415.19;5051767;28;20236;-77
2023/09/03 06:55:14;;;;;;;16.53;15.07;;;;;;;15.11;100.00;101420.59;5051589;28;20237;-76
2023/09/03 06:57:41;;;;;;;15.90;14.50;;;;;;;15.16;100.00;101422.19;5051988;28;20212;-75
2023/09/03 07:00:09;;;;;;;16.77;15.27;;;;;;;15.11;100.00;101415.34;5051154;28;20626;-77
2023/09/03 07:02:36;;;;;;;16.73;15.23;;;;;;;15.21;100.00;101395.81;5057842;28;20224;-77
2023/09/03 07:05:02;;;;;;;16.60;15.00;;;;;;;15.56;100.00;101389.72;5046790;28;20209;-77
2023/09/03 07:07:29;;;;;;;15.47;14.10;;;;;;;15.75;100.00;101387.53;5052599;28;20209;-76
2023/09/03 07:09:57;;;;;;;14.60;13.30;;;;;;;15.93;100.00;101404.63;5051892;28;20689;-77
2023/09/03 07:12:24;;;;;;;15.60;14.30;;;;;;;15.99;100.00;101443.09;5052286;28;20302;-77
2023/09/03 07:14:51;;;;;;;16.07;14.87;;;;;;;16.07;100.00;101480.63;5050765;28;20312;-76
2023/09/03 07:17:18;;;;;;;15.17;13.77;;;;;;;16.13;100.00;101474.34;5050084;28;20245;-76
2023/09/03 07:19:44;;;;;;;15.83;14.43;;;;;;;16.00;100.00;101464.13;5051941;28;20206;-77
2023/09/03 07:22:11;;;;;;;15.80;14.30;;;;;;;15.74;100.00;101454.25;5051534;28;20225;-77
2023/09/03 07:24:37;;;;;;;16.97;15.47;;;;;;;15.64;100.00;101445.69;5050733;28;20243;-76
2023/09/03 07:27:06;;;;;;;16.57;15.13;;;;;;;15.57;100.00;101448.47;5042982;28;20200;-75
2023/09/03 07:29:32;;;;;;;17.87;16.10;;;;;;;15.62;100.00;101451.88;5051418;28;20252;-75
2023/09/03 07:31:59;;;;;;;15.67;14.13;;;;;;;15.66;100.00;101454.41;5051014;28;20209;-75
2023/09/03 07:34:25;;;;;;;15.70;14.27;;;;;;;15.65;100.00;101478.13;5051188;28;20225;-76
2023/09/03 07:36:52;;;;;;;16.33;14.93;;;;;;;15.83;100.00;101492.66;5051349;28;20208;-76
2023/09/03 07:39:18;;;;;;;18.17;14.27;;;;;;;15.82;100.00;101499.69;5051445;28;20201;-76
2023/09/03 07:41:47;;;;;;;15.23;13.93;;;;;;;15.80;100.00;101498.00;5051212;28;20222;-76
2023/09/03 07:44:15;;;;;;;14.53;13.23;;;;;;;16.08;100.00;101499.03;5051335;28;20202;-76
2023/09/03 07:46:41;;;;;;;14.50;13.00;;;;;;;16.38;100.00;101522.03;5051262;28;20216;-76
2023/09/03 07:49:08;;;;;;;12.50;11.50;;;;;;;16.35;100.00;101570.41;5050898;28;20210;-76
2023/09/03 07:51:34;;;;;;;12.53;11.47;;;;;;;16.48;100.00;101598.16;5051337;28;20212;-75
2023/09/03 07:54:01;;;;;;;13.03;11.77;;;;;;;16.36;100.00;101597.63;5050592;28;20240;-76
2023/09/03 07:56:30;;;;;;;12.17;11.20;;;;;;;16.55;100.00;101605.91;5051531;28;20209;-76
2023/09/03 07:58:57;;;;;;;10.23;9.43;;;;;;;16.70;100.00;101620.50;5051275;28;20204;-76
2023/09/03 08:01:25;;;;;;;9.90;9.10;;;;;;;16.66;99.59;101652.19;5051332;28;20233;-76
2023/09/03 08:03:51;;;;;;;9.23;8.53;;;;;;;16.69;100.00;101648.66;5049965;28;20239;-76
2023/09/03 08:06:18;;;;;;;7.63;7.13;;;;;;;17.00;98.36;101675.13;5051596;28;20216;-76
2023/09/03 08:08:47;;;;;;;8.53;7.70;;;;;;;17.19;96.43;101708.97;5051011;28;20212;-76
2023/09/03 08:11:13;;;;;;;6.77;6.10;;;;;;;17.14;94.10;101758.31;5051509;28;20284;-76
2023/09/03 08:13:40;;;;;;;6.67;6.07;;;;;;;17.32;92.96;101791.31;5054814;28;20233;-76
2023/09/03 08:16:06;;;;;;;5.70;5.30;;;;;;;17.42;91.87;101825.34;5054519;28;20234;-76
2023/09/03 08:18:34;;;;;;;4.40;4.00;;;;;;;17.54;90.92;101828.56;5054244;28;20201;-76
2023/09/03 08:21:00;;;;;;;6.60;5.30;;;;;;;17.63;89.00;101879.38;5054741;28;20209;-76
2023/09/03 08:23:28;;;;;;;5.30;4.83;;;;;;;17.27;88.20;101907.56;5054523;28;20235;-76
2023/09/03 08:25:54;;;;;;;6.43;4.73;;;;;;;17.53;87.70;101906.06;5054615;28;20218;-76
2023/09/03 08:28:21;;;;;;;4.70;4.30;;;;;;;17.56;88.25;101906.88;5054408;28;20214;-75
2023/09/03 08:30:47;;;;;;;4.80;3.27;;;;;;;17.32;87.29;101932.03;5053010;28;20229;-75
2023/09/03 08:33:14;;;;;;;3.70;3.40;;;;;;;17.56;86.86;101935.91;5053880;28;20225;-76
2023/09/03 08:35:42;;;;;;;4.00;3.63;;;;;;;17.62;86.29;101946.31;5054492;28;20229;-75
2023/09/03 08:38:09;;;;;;;3.40;3.10;;;;;;;17.64;87.09;101928.66;5054124;28;20660;-75
2023/09/03 08:40:36;;;;;;;3.30;3.10;;;;;;;17.66;85.04;101969.09;5053930;28;20211;-76
2023/09/03 08:43:06;;;;;;;4.30;3.60;;;;;;;17.92;84.96;101978.19;5050333;28;20237;-76
2023/09/03 08:45:35;;;;;;;3.87;3.17;;;;;;;18.01;84.31;101990.31;5053444;28;20918;-76
2023/09/03 08:48:01;;;;;;;3.77;3.37;;;;;;;18.17;85.70;101972.28;5053981;28;20214;-76
2023/09/03 08:50:29;;;;;;;3.77;3.47;;;;;;;17.94;84.11;101983.41;5054437;28;20208;-76
2023/09/03 08:52:59;;;;;;;3.00;2.80;;;;;;;18.02;83.64;101984.97;5054246;28;20226;-76
2023/09/03 08:55:29;;;;;;;3.60;2.93;;;;;;;18.14;82.01;102026.09;5054248;28;20236;-76
2023/09/03 08:57:56;;;;;;;3.47;3.10;;;;;;;18.08;82.74;102044.75;5054598;28;20238;-76
2023/09/03 09:00:22;;;;;;;3.30;3.10;;;;;;;17.92;83.14;102056.56;5054511;28;20614;-76
2023/09/03 09:02:50;;;;;;;3.80;2.60;;;;;;;17.73;81.61;102062.25;5053765;28;20224;-76
2023/09/03 09:05:17;;;;;;;2.60;2.40;;;;;;;17.75;81.14;102086.00;5054449;28;20617;-76
2023/09/03 09:07:43;;;;;;;5.53;3.53;;;;;;;18.04;81.23;102074.78;5054153;28;20212;-76
2023/09/03 09:10:16;;;;;;;2.80;2.60;;;;;;;18.29;80.36;102080.34;5054161;28;20256;-76
2023/09/03 09:12:47;;;;;;;4.33;2.80;;;;;;;18.38;81.21;102074.81;5054052;28;20226;-76
2023/09/03 09:15:13;;;;;;;3.73;2.70;;;;;;;18.29;80.59;102084.75;5045411;28;20219;-76
2023/09/03 09:17:41;;;;;;;2.80;2.50;;;;;;;17.86;80.42;102090.16;5054095;28;20209;-76
2023/09/03 09:20:09;;;;;;;4.40;2.40;;;;;;;17.82;79.60;102096.41;5054130;28;20209;-76
2023/09/03 09:22:40;;;;;;;3.00;2.63;;;;;;;17.94;79.90;102097.03;5053880;28;20226;-75
2023/09/03 09:25:08;;;;;;;3.80;3.27;;;;;;;17.66;80.04;102101.16;5053323;28;20201;-75
2023/09/03 09:27:38;;;;;;;2.83;2.63;;;;;;;17.84;79.42;102101.69;5053481;28;20201;-76
2023/09/03 09:30:10;;;;;;;2.23;1.80;;;;;;;17.93;77.09;102129.66;5053462;28;20212;-76
2023/09/03 09:32:37;;;;;;;4.17;2.20;;;;;;;17.96;75.52;102182.44;5052509;28;20714;-76
2023/09/03 09:35:04;;;;;;;2.10;1.90;;;;;;;18.16;74.89;102213.72;5053027;28;20227;-76
2023/09/03 09:37:38;;;;;;;2.07;1.70;;;;;;;18.25;77.05;102202.91;5053115;28;20669;-76
2023/09/03 09:40:06;;;;;;;2.20;2.00;;;;;;;18.05;76.08;102198.94;5053575;28;20269;-75
2023/09/03 09:42:32;;;;;;;4.30;1.90;;;;;;;17.91;77.51;102187.81;5053116;28;20233;-75
2023/09/03 09:45:01;;;;;;;2.77;1.80;;;;;;;17.88;75.98;102202.84;5053036;28;20205;-76
2023/09/03 09:47:28;;;;;;;3.40;1.60;;;;;;;18.07;75.45;102201.56;5052823;28;20237;-76
2023/09/03 09:49:56;;;;;;;2.50;1.63;;;;;;;18.32;75.17;102209.81;5052927;28;20218;-76
2023/09/03 09:52:22;;;;;;;1.80;1.67;;;;;;;18.33;71.06;102267.06;5052911;28;20230;-76
2023/09/03 09:54:50;;;;;;;3.00;1.70;;;;;;;18.37;72.12;102275.78;5053048;28;20231;-76
2023/09/03 09:57:19;;;;;;;1.50;1.40;;;;;;;18.19;71.26;102317.59;5044634;28;20213;-76
2023/09/03 09:59:52;;;;;;;2.00;1.80;;;;;;;18.41;71.64;102315.38;5052983;28;20714;-76
2023/09/03 10:02:21;;;;;;;1.43;1.30;;;;;;;18.36;70.82;102324.31;5052021;28;20225;-76
2023/09/03 10:04:48;;;;;;;2.90;1.97;;;;;;;18.46;69.70;102345.22;5052827;28;20286;-76
2023/09/03 10:07:15;;;;;;;2.17;1.97;;;;;;;18.71;70.35;102333.22;5052748;28;20207;-76
2023/09/03 10:09:43;;;;;;;1.87;1.60;;;;;;;18.80;72.14;102299.53;5052675;28;20209;-76
2023/09/03 10:12:11;;;;;;;5.33;1.67;;;;;;;18.63;71.67;102305.19;5052105;28;20237;-76
2023/09/03 10:14:38;;;;;;;1.97;1.57;;;;;;;18.66;71.62;102310.41;5052329;28;20222;-76
2023/09/03 10:17:06;;;;;;;1.47;1.37;;;;;;;18.75;70.58;102317.28;5052317;28;20568;-76
2023/09/03 10:19:41;;;;;;;1.83;1.30;;;;;;;18.62;70.45;102324.59;5052680;28;20217;-76
2023/09/03 10:22:13;;;;;;;1.47;1.33;;;;;;;18.99;70.82;102302.63;5052053;28;20279;-76
2023/09/03 10:24:41;;;;;;;3.70;2.00;;;;;;;19.15;68.75;102337.53;5052679;28;20206;-75
2023/09/03 10:27:13;;;;;;;1.43;1.07;;;;;;;19.03;65.15;102396.06;5051823;28;20216;-76
2023/09/03 10:29:42;;;;;;;1.60;1.30;;;;;;;19.08;67.21;102395.94;5052752;28;20198;-76
2023/09/03 10:32:11;;;;;;;1.83;1.20;;;;;;;18.84;66.94;102401.75;5051597;28;20230;-76
2023/09/03 10:34:39;;;;;;;2.77;1.60;;;;;;;18.83;68.13;102388.56;5051719;28;20214;-76
2023/09/03 10:37:08;;;;;;;3.73;1.40;;;;;;;19.23;67.55;102391.16;5051492;28;20219;-76
2023/09/03 10:39:35;;;;;;;1.60;1.50;;;;;;;19.40;64.64;102453.44;5051991;28;20211;-76
2023/09/03 10:42:27;;;;;;;1.53;1.20;;;;;;;19.40;62.59;102494.03;5051570;28;20259;-76
2023/09/03 10:44:55;;;;;;;2.17;1.47;;;;;;;19.47;64.47;102500.06;5052344;28;20257;-76
2023/09/03 10:47:22;;;;;;;2.27;1.40;;;;;;;19.20;65.50;102486.53;5051462;28;20203;-76
2023/09/03 10:49:51;;;;;;;2.07;1.20;;;;;;;19.40;64.35;102478.13;5051741;28;20654;-76
2023/09/03 10:52:40;;;;;;;1.20;1.10;;;;;;;19.41;61.70;102537.28;5051604;28;20219;-76
2023/09/03 10:55:14;;;;;;;0.93;0.93;;;;;;;19.58;59.46;102597.84;5051997;28;20234;-76
2023/09/03 10:57:41;;;;;;;1.60;1.13;;;;;;;19.52;57.57;102653.59;5051634;28;20211;-76
2023/09/03 11:00:15;;;;;;;2.20;1.20;;;;;;;19.74;59.78;102648.75;5051698;28;20220;-76
2023/09/03 11:02:41;;;;;;;0.87;0.87;;;;;;;19.86;58.16;102666.16;5051443;28;20657;-76
2023/09/03 11:05:14;;;;;;;1.27;1.17;;;;;;;20.10;59.37;102667.38;5051814;28;20205;-76
2023/09/03 11:07:41;;;;;;;1.10;1.00;;;;;;;20.32;58.28;102657.16;5051761;28;20237;-76
2023/09/03 11:10:38;;;;;;;1.57;1.00;;;;;;;20.50;59.32;102667.31;5052060;28;20682;-76
2023/09/03 11:13:09;;;;;;;2.00;1.43;;;;;;;20.72;59.03;102664.16;5050820;28;20227;-76
2023/09/03 11:15:35;;;;;;;1.27;1.00;;;;;;;20.67;59.75;102660.72;5051801;28;20217;-76
2023/09/03 11:18:02;;;;;;;1.23;1.00;;;;;;;20.68;57.75;102691.66;5051036;28;20205;-76